Time;durP1;ratioP1;P1;durP2;ratioP2;P2;SDS_P1;SDS_P2;PMS_P1;PMS_P2;Temp;Humidity;BMP_temperature;BMP_pressure;BME280_temperature;BME280_humidity;BME280_pressure;Samples;Min_cycle;Max_cycle;Signal;HPM_P1;HPM_P2
2022/06/09 00:01:29;;;;;;;11.57;5.60;;;22.50;76.20;;;;;;5035719;28;20230;-77
2022/06/09 00:04:05;;;;;;;10.23;5.40;;;22.40;76.30;;;;;;5034049;28;20207;-77
2022/06/09 00:06:40;;;;;;;9.68;5.28;;;22.40;76.40;;;;;;5032087;28;20248;-77
2022/06/09 00:09:09;;;;;;;8.23;5.25;;;22.30;76.50;;;;;;5027948;28;20207;-77
2022/06/09 00:11:41;;;;;;;12.30;5.32;;;22.30;76.50;;;;;;5033575;28;20765;-77
2022/06/09 00:14:10;;;;;;;9.25;5.07;;;22.30;76.60;;;;;;5034847;28;20194;-77
2022/06/09 00:16:39;;;;;;;8.65;5.00;;;22.30;76.70;;;;;;5037670;28;20195;-76
2022/06/09 00:19:10;;;;;;;10.18;5.00;;;22.30;76.80;;;;;;5030505;28;20758;-77
2022/06/09 00:21:39;;;;;;;10.93;5.47;;;22.20;76.90;;;;;;5023644;28;20206;-77
2022/06/09 00:24:08;;;;;;;9.13;5.72;;;22.20;77.20;;;;;;5032450;28;20196;-76
2022/06/09 00:26:36;;;;;;;10.68;5.10;;;22.20;77.40;;;;;;5028430;28;20191;-79
2022/06/09 00:29:05;;;;;;;9.30;4.70;;;22.20;77.60;;;;;;5032533;28;20194;-77
2022/06/09 00:31:33;;;;;;;9.88;5.03;;;22.10;77.70;;;;;;5030223;28;20201;-77
2022/06/09 00:34:02;;;;;;;10.75;5.13;;;22.10;77.80;;;;;;5028306;28;20191;-77
2022/06/09 00:36:32;;;;;;;8.45;5.72;;;22.10;77.90;;;;;;5031465;28;20191;-77
2022/06/09 00:39:01;;;;;;;10.60;5.45;;;22.10;78.10;;;;;;5025775;28;20183;-77
2022/06/09 00:41:29;;;;;;;7.70;5.30;;;22.10;78.00;;;;;;5020027;28;20220;-77
2022/06/09 00:44:15;;;;;;;8.63;5.35;;;22.00;78.00;;;;;;5030497;28;20898;-78
2022/06/09 00:46:44;;;;;;;8.82;5.40;;;22.00;78.20;;;;;;5029647;28;20202;-77
2022/06/09 00:49:19;;;;;;;9.07;5.50;;;22.00;78.40;;;;;;5043315;28;20199;-78
2022/06/09 00:51:55;;;;;;;12.85;5.63;;;22.00;78.70;;;;;;5040794;28;20628;-78
2022/06/09 00:54:27;;;;;;;12.13;5.47;;;21.90;78.70;;;;;;5040002;28;20194;-77
2022/06/09 00:57:01;;;;;;;8.30;5.40;;;21.90;78.80;;;;;;5036867;28;20199;-77
2022/06/09 00:59:30;;;;;;;9.07;5.20;;;21.90;79.00;;;;;;5037697;28;20195;-77
2022/06/09 01:02:02;;;;;;;14.02;5.88;;;21.90;79.50;;;;;;5024768;28;20222;-77
2022/06/09 01:04:33;;;;;;;10.57;5.60;;;21.80;79.20;;;;;;5036391;28;20241;-77
2022/06/09 01:07:07;;;;;;;9.82;5.35;;;21.80;79.30;;;;;;5028106;28;20199;-77
2022/06/09 01:09:36;;;;;;;13.52;5.63;;;21.80;79.40;;;;;;5026248;28;20203;-77
2022/06/09 01:12:22;;;;;;;15.10;5.97;;;21.80;79.70;;;;;;5024049;28;20283;-77
2022/06/09 01:14:50;;;;;;;7.57;5.32;;;21.70;79.90;;;;;;5033388;28;20194;-77
2022/06/09 01:17:31;;;;;;;8.55;5.55;;;21.80;80.00;;;;;;5032158;28;20430;-77
2022/06/09 01:20:12;;;;;;;9.88;5.38;;;21.70;80.10;;;;;;5036015;28;20202;-77
2022/06/09 01:23:08;;;;;;;10.50;5.65;;;21.70;80.10;;;;;;5027146;28;20197;-77
2022/06/09 01:25:57;;;;;;;9.65;5.50;;;21.70;80.30;;;;;;5023911;28;20211;-77
2022/06/09 01:28:58;;;;;;;10.57;5.47;;;21.70;80.50;;;;;;5025249;28;20193;-77
2022/06/09 01:31:35;;;;;;;12.55;5.03;;;21.70;80.50;;;;;;5025372;28;20223;-77
2022/06/09 01:34:11;;;;;;;8.43;5.57;;;21.70;80.50;;;;;;5039537;28;20202;-78
2022/06/09 01:36:47;;;;;;;8.20;5.32;;;21.60;80.60;;;;;;5026510;28;20289;-78
2022/06/09 01:39:15;;;;;;;8.02;4.68;;;21.60;80.60;;;;;;5027362;28;20217;-77
2022/06/09 01:41:48;;;;;;;9.90;5.10;;;21.60;80.70;;;;;;5027510;28;20214;-77
2022/06/09 01:44:18;;;;;;;7.93;5.22;;;21.60;80.80;;;;;;5046014;28;20217;-79
2022/06/09 01:46:48;;;;;;;9.98;5.25;;;21.60;81.00;;;;;;5079157;28;20556;-77
2022/06/09 01:49:23;;;;;;;9.95;5.80;;;21.60;81.20;;;;;;5078489;28;20209;-78
2022/06/09 01:51:53;;;;;;;8.93;5.57;;;21.60;81.20;;;;;;5077439;28;20216;-77
2022/06/09 01:54:28;;;;;;;11.88;5.72;;;21.60;81.30;;;;;;5078446;28;20209;-76
2022/06/09 01:57:02;;;;;;;14.40;6.45;;;21.60;81.60;;;;;;5074192;28;20196;-76
2022/06/09 01:59:35;;;;;;;11.07;6.00;;;21.60;81.70;;;;;;5079170;28;20894;-76
2022/06/09 02:02:12;;;;;;;8.05;5.32;;;21.60;82.00;;;;;;5081625;28;20182;-76
2022/06/09 02:04:45;;;;;;;11.18;6.93;;;21.60;82.10;;;;;;5070694;28;20193;-77
2022/06/09 02:07:15;;;;;;;11.67;7.00;;;21.60;82.10;;;;;;5079770;28;20925;-77
2022/06/09 02:09:43;;;;;;;9.68;6.25;;;21.60;82.40;;;;;;5079859;28;20186;-77
2022/06/09 02:12:16;;;;;;;9.48;6.25;;;21.60;82.50;;;;;;5078065;28;20198;-78
2022/06/09 02:14:48;;;;;;;14.70;6.68;;;21.60;82.60;;;;;;5074241;28;20186;-78
2022/06/09 02:17:18;;;;;;;11.97;6.67;;;21.60;82.80;;;;;;5076802;28;20189;-78
2022/06/09 02:19:48;;;;;;;9.80;5.97;;;21.60;83.10;;;;;;5076107;28;20857;-78
2022/06/09 02:22:17;;;;;;;11.80;6.90;;;21.60;83.30;;;;;;5080914;28;20662;-78
2022/06/09 02:24:45;;;;;;;12.93;6.50;;;21.60;84.60;;;;;;5070728;28;20194;-76
2022/06/09 02:27:15;;;;;;;10.68;5.82;;;21.60;83.80;;;;;;5078528;28;20205;-77
2022/06/09 02:29:43;;;;;;;11.20;7.05;;;21.60;83.80;;;;;;5080859;28;20205;-77
2022/06/09 02:32:12;;;;;;;10.48;5.88;;;21.60;83.80;;;;;;5077726;28;20216;-77
2022/06/09 02:34:41;;;;;;;9.63;6.13;;;21.60;84.00;;;;;;5079798;28;20198;-77
2022/06/09 02:37:10;;;;;;;14.63;6.03;;;21.60;84.00;;;;;;5080491;28;20194;-77
2022/06/09 02:39:38;;;;;;;8.98;6.10;;;21.60;84.00;;;;;;5075952;28;20194;-78
2022/06/09 02:42:07;;;;;;;9.10;5.90;;;21.60;84.00;;;;;;5078941;28;20561;-76
2022/06/09 02:44:36;;;;;;;8.77;5.47;;;21.60;84.20;;;;;;5077702;28;20218;-77
2022/06/09 02:47:08;;;;;;;8.52;5.95;;;21.60;84.30;;;;;;5074213;28;20202;-77
2022/06/09 02:49:37;;;;;;;8.57;5.70;;;21.60;85.30;;;;;;5081195;28;20201;-77
2022/06/09 02:52:07;;;;;;;12.73;6.03;;;21.70;84.40;;;;;;5078029;28;20217;-77
2022/06/09 02:54:36;;;;;;;9.90;5.38;;;21.70;84.80;;;;;;5073534;28;20841;-76
2022/06/09 02:57:06;;;;;;;10.13;5.80;;;21.70;84.90;;;;;;5075622;28;20202;-77
2022/06/09 02:59:34;;;;;;;9.27;5.78;;;21.70;84.90;;;;;;5084719;28;20220;-77
2022/06/09 03:02:03;;;;;;;12.23;5.32;;;21.70;84.90;;;;;;5083044;28;20662;-77
2022/06/09 03:04:31;;;;;;;11.45;5.22;;;21.70;85.00;;;;;;5077180;28;20221;-78
2022/06/09 03:07:00;;;;;;;11.82;5.22;;;21.70;84.90;;;;;;5078158;28;20209;-77
2022/06/09 03:09:30;;;;;;;7.25;4.38;;;21.70;85.00;;;;;;5083095;28;20213;-76
2022/06/09 03:11:58;;;;;;;7.75;4.13;;;21.70;85.00;;;;;;5080274;28;20228;-76
2022/06/09 03:14:27;;;;;;;10.52;5.05;;;21.80;85.10;;;;;;5080211;28;20192;-76
2022/06/09 03:16:55;;;;;;;7.57;4.50;;;21.80;85.10;;;;;;5083853;28;20576;-77
2022/06/09 03:19:23;;;;;;;8.48;4.57;;;21.80;85.20;;;;;;5080907;28;20182;-77
2022/06/09 03:21:52;;;;;;;7.35;4.32;;;21.80;85.20;;;;;;5076010;28;20218;-76
2022/06/09 03:24:20;;;;;;;6.60;4.22;;;21.80;85.20;;;;;;5076384;28;20201;-76
2022/06/09 03:26:51;;;;;;;7.95;4.70;;;21.90;85.20;;;;;;5080448;28;20205;-76
2022/06/09 03:29:19;;;;;;;6.43;3.90;;;21.90;85.20;;;;;;5082747;28;20193;-77
2022/06/09 03:31:48;;;;;;;8.73;3.83;;;21.90;85.30;;;;;;5082795;28;20579;-76
2022/06/09 03:34:18;;;;;;;8.18;3.70;;;21.90;85.00;;;;;;5074339;28;20201;-75
2022/06/09 03:36:47;;;;;;;7.45;4.20;;;22.00;85.00;;;;;;5080495;28;20213;-77
2022/06/09 03:39:15;;;;;;;6.50;4.07;;;22.00;84.90;;;;;;5077787;28;20185;-77
2022/06/09 03:41:43;;;;;;;7.45;4.03;;;22.00;84.80;;;;;;5084568;28;20194;-76
2022/06/09 03:44:13;;;;;;;7.03;4.13;;;22.10;84.80;;;;;;5073833;28;20225;-77
2022/06/09 03:46:42;;;;;;;7.75;3.70;;;22.00;84.70;;;;;;5079147;28;20194;-76
2022/06/09 03:49:11;;;;;;;10.07;4.22;;;22.10;84.60;;;;;;5078801;28;20182;-77
2022/06/09 03:51:39;;;;;;;6.60;4.00;;;22.10;84.70;;;;;;5080209;28;20233;-76
2022/06/09 03:54:08;;;;;;;8.05;3.88;;;22.10;84.70;;;;;;5077959;28;20284;-77
2022/06/09 03:56:37;;;;;;;6.13;3.55;;;22.20;84.70;;;;;;5078730;28;20199;-77
2022/06/09 03:59:05;;;;;;;7.43;3.97;;;22.20;84.70;;;;;;5077622;28;20194;-77
2022/06/09 04:01:35;;;;;;;9.30;3.95;;;22.20;84.70;;;;;;5082987;28;20197;-77
2022/06/09 04:04:04;;;;;;;5.72;3.45;;;22.20;84.70;;;;;;5080710;28;20198;-77
2022/06/09 04:06:34;;;;;;;6.32;3.90;;;22.20;84.60;;;;;;5079717;28;20198;-76
2022/06/09 04:09:03;;;;;;;9.50;3.53;;;22.30;84.70;;;;;;5082823;28;20192;-78
2022/06/09 04:11:32;;;;;;;6.78;3.58;;;22.40;84.90;;;;;;5084318;28;20232;-76
2022/06/09 04:14:00;;;;;;;8.55;3.63;;;22.40;84.90;;;;;;5079272;28;20190;-77
2022/06/09 04:16:31;;;;;;;7.07;3.83;;;22.40;84.90;;;;;;5083436;28;20204;-76
2022/06/09 04:19:04;;;;;;;6.35;3.33;;;22.50;85.00;;;;;;5079381;28;20186;-78
2022/06/09 04:21:34;;;;;;;6.25;4.05;;;22.60;84.90;;;;;;5081192;28;20185;-78
2022/06/09 04:24:03;;;;;;;5.13;3.53;;;22.70;85.00;;;;;;5076234;28;20197;-79
2022/06/09 04:26:34;;;;;;;6.65;4.00;;;22.70;84.80;;;;;;5074593;28;20206;-76
2022/06/09 04:29:05;;;;;;;6.40;3.53;;;22.80;84.70;;;;;;5079763;28;20225;-76
2022/06/09 04:31:34;;;;;;;6.32;2.97;;;22.80;84.50;;;;;;5081990;28;20248;-77
2022/06/09 04:34:03;;;;;;;4.38;2.33;;;22.90;84.60;;;;;;5081491;28;20225;-79
2022/06/09 04:36:32;;;;;;;5.15;3.17;;;23.00;84.30;;;;;;5080381;28;20186;-79
2022/06/09 04:39:01;;;;;;;7.75;3.88;;;23.00;84.20;;;;;;5077585;28;20208;-79
2022/06/09 04:41:29;;;;;;;6.97;3.28;;;23.10;84.20;;;;;;5082813;28;20670;-78
2022/06/09 04:43:58;;;;;;;7.35;3.05;;;23.10;84.10;;;;;;5084335;28;20236;-76
2022/06/09 04:46:27;;;;;;;5.65;3.17;;;23.10;83.90;;;;;;5081354;28;20285;-78
2022/06/09 04:48:56;;;;;;;6.97;3.00;;;23.10;83.80;;;;;;5075051;28;20666;-78
2022/06/09 04:51:26;;;;;;;4.85;2.78;;;23.10;83.60;;;;;;5084060;28;20192;-77
2022/06/09 04:53:55;;;;;;;4.85;2.65;;;23.10;83.50;;;;;;5085216;28;20190;-77
2022/06/09 04:56:24;;;;;;;6.85;3.67;;;23.20;83.50;;;;;;5078705;28;20182;-79
2022/06/09 04:58:53;;;;;;;4.32;2.60;;;23.20;83.30;;;;;;5076061;28;20208;-77
2022/06/09 05:01:24;;;;;;;6.53;3.17;;;23.20;83.30;;;;;;5082764;28;20197;-78
2022/06/09 05:03:53;;;;;;;5.22;3.17;;;23.20;83.20;;;;;;5082835;28;20686;-80
2022/06/09 05:06:23;;;;;;;6.68;2.75;;;23.30;83.20;;;;;;5080673;28;20185;-80
2022/06/09 05:08:55;;;;;;;3.83;2.53;;;23.30;83.20;;;;;;5081272;28;20193;-78
2022/06/09 05:11:24;;;;;;;4.95;2.60;;;23.30;83.00;;;;;;5083124;28;20185;-79
2022/06/09 05:13:53;;;;;;;7.30;3.05;;;23.40;82.80;;;;;;5075385;28;20209;-78
2022/06/09 05:16:22;;;;;;;9.80;3.50;;;23.50;82.70;;;;;;5082766;28;20190;-77
2022/06/09 05:18:50;;;;;;;7.80;2.72;;;23.60;82.70;;;;;;5084700;28;20244;-77
2022/06/09 05:21:19;;;;;;;6.05;3.42;;;23.70;82.60;;;;;;5081678;28;20193;-77
2022/06/09 05:23:47;;;;;;;7.35;3.13;;;23.70;82.20;;;;;;5082668;28;20193;-78
2022/06/09 05:26:17;;;;;;;6.75;3.08;;;23.80;82.20;;;;;;5080695;28;20197;-76
2022/06/09 05:28:45;;;;;;;4.88;2.40;;;23.90;82.10;;;;;;5083929;28;20190;-78
2022/06/09 05:31:14;;;;;;;6.18;2.30;;;24.00;81.80;;;;;;5079245;28;20198;-78
2022/06/09 05:33:42;;;;;;;8.57;2.40;;;24.00;81.30;;;;;;5082899;28;20921;-77
2022/06/09 05:36:10;;;;;;;4.70;2.35;;;24.00;80.90;;;;;;5084405;28;20418;-76
2022/06/09 05:47:10;;;;;;;3.95;2.50;;;24.20;79.80;;;;;;5076241;28;20272;-78
2022/06/09 05:49:38;;;;;;;7.63;2.22;;;24.30;79.90;;;;;;5077739;28;20197;-79
2022/06/09 05:52:07;;;;;;;7.88;2.55;;;24.40;79.70;;;;;;5075534;28;20217;-77
2022/06/09 05:54:36;;;;;;;5.93;1.60;;;24.40;79.50;;;;;;5066762;28;20551;-76
2022/06/09 05:57:06;;;;;;;3.90;2.03;;;24.40;78.50;;;;;;5074253;28;20647;-78
2022/06/09 05:59:34;;;;;;;6.55;1.92;;;24.50;78.60;;;;;;5079213;28;20201;-78
2022/06/09 06:02:03;;;;;;;5.43;1.80;;;24.50;78.40;;;;;;5080968;28;20220;-76
2022/06/09 06:04:31;;;;;;;3.38;2.17;;;24.50;78.20;;;;;;5080005;28;20205;-78
2022/06/09 06:07:00;;;;;;;3.20;1.88;;;24.50;77.60;;;;;;5081631;28;20196;-77
2022/06/09 06:09:28;;;;;;;4.90;2.33;;;24.50;77.50;;;;;;5081866;28;20201;-76
2022/06/09 06:11:57;;;;;;;3.47;1.90;;;24.50;77.00;;;;;;5080726;28;20910;-77
2022/06/09 06:14:27;;;;;;;4.35;2.53;;;24.60;77.00;;;;;;5077335;28;20201;-76
2022/06/09 06:16:56;;;;;;;7.47;2.35;;;24.60;76.70;;;;;;5073893;28;20190;-76
2022/06/09 06:19:25;;;;;;;7.35;2.83;;;24.70;76.20;;;;;;5074471;28;20221;-77
2022/06/09 06:21:55;;;;;;;4.75;1.98;;;24.70;75.80;;;;;;5076689;28;20598;-77
2022/06/09 06:24:25;;;;;;;3.80;1.80;;;24.80;76.10;;;;;;5080253;28;20193;-78
2022/06/09 06:26:54;;;;;;;4.88;2.20;;;24.80;76.30;;;;;;5079018;28;20193;-77
2022/06/09 06:29:27;;;;;;;3.63;2.00;;;24.90;76.10;;;;;;5084813;28;20686;-78
2022/06/09 06:31:55;;;;;;;5.63;2.08;;;25.00;76.00;;;;;;5086962;28;20201;-78
2022/06/09 06:34:24;;;;;;;5.28;2.13;;;25.00;75.40;;;;;;5082292;28;20209;-77
2022/06/09 06:36:53;;;;;;;4.38;2.15;;;25.00;75.00;;;;;;5082617;28;20186;-77
2022/06/09 06:39:21;;;;;;;3.47;2.38;;;25.10;75.10;;;;;;5087436;28;20205;-77
2022/06/09 06:41:50;;;;;;;5.18;2.17;;;25.20;75.00;;;;;;5085567;28;20284;-79
2022/06/09 06:44:19;;;;;;;3.10;1.85;;;25.20;75.10;;;;;;5087568;28;20229;-78
2022/06/09 06:46:48;;;;;;;6.30;2.38;;;25.30;74.70;;;;;;5083123;28;20189;-78
2022/06/09 06:49:17;;;;;;;5.35;2.33;;;25.40;74.70;;;;;;5086081;28;20198;-79
2022/06/09 06:51:46;;;;;;;3.60;2.05;;;25.40;74.50;;;;;;5082912;28;20194;-78
2022/06/09 06:54:14;;;;;;;2.92;1.58;;;25.50;74.40;;;;;;5087724;28;20236;-77
2022/06/09 06:56:42;;;;;;;3.50;2.00;;;25.50;73.60;;;;;;5083019;28;20189;-77
2022/06/09 06:59:11;;;;;;;2.88;1.48;;;25.60;72.40;;;;;;5085387;28;20206;-78
2022/06/09 07:01:39;;;;;;;4.82;1.58;;;25.60;72.60;;;;;;5087267;28;20197;-78
2022/06/09 07:04:09;;;;;;;4.47;1.63;;;25.60;72.50;;;;;;5088187;28;20206;-77
2022/06/09 07:06:38;;;;;;;4.47;1.60;;;25.70;71.30;;;;;;5086804;28;20285;-78
2022/06/09 07:09:06;;;;;;;2.85;1.73;;;25.70;71.40;;;;;;5085268;28;20194;-78
2022/06/09 07:11:35;;;;;;;2.45;1.38;;;25.80;71.50;;;;;;5082776;28;20192;-77
2022/06/09 07:14:04;;;;;;;2.13;1.50;;;25.80;70.30;;;;;;5081019;28;20213;-78
2022/06/09 07:16:33;;;;;;;4.15;1.45;;;25.90;69.70;;;;;;5081640;28;20632;-78
2022/06/09 07:19:19;;;;;;;4.07;1.40;;;25.90;69.70;;;;;;5086557;28;20246;-76
2022/06/09 07:21:48;;;;;;;3.55;1.60;;;26.00;69.90;;;;;;5087159;28;20208;-78
2022/06/09 07:24:16;;;;;;;9.27;2.03;;;26.10;69.70;;;;;;5087045;28;20297;-76
2022/06/09 07:26:44;;;;;;;2.30;1.50;;;26.10;69.40;;;;;;5082049;28;20193;-78
2022/06/09 07:29:13;;;;;;;2.55;1.50;;;26.10;69.00;;;;;;5086140;28;20654;-78
2022/06/09 07:31:41;;;;;;;4.30;1.92;;;26.20;69.30;;;;;;5085002;28;20186;-78
2022/06/09 07:34:10;;;;;;;3.22;2.08;;;26.20;68.30;;;;;;5087156;28;20226;-79
2022/06/09 07:36:41;;;;;;;5.18;2.00;;;26.20;67.80;;;;;;5072850;28;20197;-77
2022/06/09 07:39:09;;;;;;;3.42;1.30;;;26.30;68.60;;;;;;5084509;28;20202;-79
2022/06/09 07:41:38;;;;;;;1.63;1.10;;;26.40;68.90;;;;;;5086922;28;20208;-78
2022/06/09 07:44:08;;;;;;;4.50;1.17;;;26.40;67.10;;;;;;5085660;28;20233;-78
2022/06/09 07:46:39;;;;;;;2.45;1.25;;;26.50;67.50;;;;;;5084405;28;20694;-79
2022/06/09 07:49:08;;;;;;;2.75;1.38;;;26.50;66.50;;;;;;5085132;28;20185;-77
2022/06/09 07:51:39;;;;;;;5.75;1.40;;;26.60;66.80;;;;;;5083947;28;20189;-79
2022/06/09 07:54:14;;;;;;;3.42;1.38;;;26.60;66.80;;;;;;5085969;28;20209;-78
2022/06/09 07:56:43;;;;;;;2.88;1.40;;;26.60;64.90;;;;;;5085857;28;20197;-79
2022/06/09 07:59:11;;;;;;;1.92;1.20;;;26.60;64.40;;;;;;5085027;28;20200;-79
2022/06/09 08:01:40;;;;;;;2.17;1.23;;;26.60;64.90;;;;;;5084729;28;20189;-79
2022/06/09 08:04:09;;;;;;;1.60;1.10;;;26.60;65.20;;;;;;5072321;28;20247;-79
2022/06/09 08:06:38;;;;;;;2.20;1.20;;;26.70;65.40;;;;;;5080650;28;20208;-80
2022/06/09 08:09:07;;;;;;;5.10;1.75;;;26.70;65.50;;;;;;5082204;28;20182;-80
2022/06/09 08:11:38;;;;;;;4.88;1.58;;;26.70;65.30;;;;;;5081053;28;20204;-80
2022/06/09 08:14:08;;;;;;;4.22;1.55;;;26.80;65.80;;;;;;5081609;28;20303;-79
2022/06/09 08:16:37;;;;;;;3.90;1.67;;;26.70;63.90;;;;;;5076762;28;20202;-79
2022/06/09 08:19:07;;;;;;;7.88;2.35;;;26.80;64.60;;;;;;5085926;28;20208;-79
2022/06/09 08:21:43;;;;;;;5.63;1.80;;;26.80;64.90;;;;;;5082380;28;20247;-80
2022/06/09 08:24:21;;;;;;;5.55;1.42;;;26.80;65.00;;;;;;5085897;28;20193;-80
2022/06/09 08:26:52;;;;;;;4.72;2.10;;;26.80;65.30;;;;;;5081626;28;20193;-79
2022/06/09 08:29:29;;;;;;;6.18;2.00;;;26.90;65.30;;;;;;5083737;28;20220;-79
2022/06/09 08:31:58;;;;;;;3.05;1.80;;;26.90;65.40;;;;;;5077620;28;20186;-79
2022/06/09 08:34:28;;;;;;;2.83;1.80;;;26.90;65.30;;;;;;5086039;28;20233;-79
2022/06/09 08:37:04;;;;;;;2.78;2.00;;;26.80;65.50;;;;;;5084586;28;20185;-80
2022/06/09 08:39:33;;;;;;;5.65;1.63;;;26.80;65.80;;;;;;5085493;28;20208;-80
2022/06/09 08:42:15;;;;;;;4.43;1.95;;;26.90;65.80;;;;;;5085485;28;20728;-79
2022/06/09 08:44:49;;;;;;;4.68;2.00;;;26.90;65.80;;;;;;5082682;28;20956;-79
2022/06/09 08:47:27;;;;;;;2.58;1.50;;;26.90;66.10;;;;;;5084058;28;20185;-79
2022/06/09 08:50:06;;;;;;;2.28;1.50;;;26.90;65.80;;;;;;5083194;28;20340;-79
2022/06/09 08:52:45;;;;;;;2.22;1.20;;;26.90;65.10;;;;;;5084405;28;20196;-80
2022/06/09 08:55:27;;;;;;;5.13;1.50;;;26.90;65.30;;;;;;5079855;28;20209;-80
2022/06/09 08:58:02;;;;;;;2.20;1.17;;;26.90;64.90;;;;;;5076144;28;20841;-79
2022/06/09 09:00:38;;;;;;;4.13;1.10;;;26.80;63.90;;;;;;5082679;28;20194;-79
2022/06/09 09:03:15;;;;;;;1.88;1.05;;;26.80;64.70;;;;;;5081123;28;20216;-79
2022/06/09 09:05:56;;;;;;;2.38;1.05;;;26.80;64.10;;;;;;5083566;28;20228;-81
2022/06/09 09:08:26;;;;;;;3.35;1.40;;;26.70;62.70;;;;;;5080385;28;20694;-80
2022/06/09 09:11:10;;;;;;;3.00;1.70;;;26.70;63.20;;;;;;5073960;28;20192;-80
2022/06/09 09:13:48;;;;;;;2.85;1.52;;;26.70;63.50;;;;;;5074101;28;20198;-78
2022/06/09 09:16:25;;;;;;;2.55;1.23;;;26.70;63.70;;;;;;5081204;28;20190;-78
2022/06/09 09:18:58;;;;;;;5.97;1.50;;;26.70;63.90;;;;;;5069763;28;20190;-80
2022/06/09 09:21:51;;;;;;;6.07;1.40;;;26.60;63.10;;;;;;5083616;28;20695;-80
2022/06/09 09:24:30;;;;;;;3.58;1.40;;;26.70;63.50;;;;;;5081179;28;20196;-80
2022/06/09 09:27:12;;;;;;;6.63;1.63;;;26.60;63.60;;;;;;5080420;28;20193;-79
2022/06/09 09:29:48;;;;;;;3.65;1.42;;;26.60;64.00;;;;;;5082862;28;20189;-80
2022/06/09 09:32:20;;;;;;;4.13;1.50;;;26.60;64.00;;;;;;5078604;28;20220;-80
2022/06/09 09:34:50;;;;;;;3.72;1.38;;;26.50;63.80;;;;;;5079147;28;20693;-80
2022/06/09 09:37:26;;;;;;;3.45;1.50;;;26.50;63.80;;;;;;5075041;28;20237;-77
2022/06/09 09:40:00;;;;;;;2.60;1.20;;;26.40;63.90;;;;;;5078073;28;20186;-79
2022/06/09 09:42:31;;;;;;;6.15;1.70;;;26.40;64.10;;;;;;5082823;28;20523;-78
2022/06/09 09:45:07;;;;;;;3.67;1.42;;;26.30;64.20;;;;;;5075102;28;20746;-78
2022/06/09 09:47:45;;;;;;;2.38;1.45;;;26.30;64.60;;;;;;5074041;28;20236;-80
2022/06/09 09:50:23;;;;;;;5.05;1.40;;;26.30;64.70;;;;;;5082726;28;20185;-80
2022/06/09 09:53:00;;;;;;;2.28;1.30;;;26.30;65.10;;;;;;5077196;28;20197;-79
2022/06/09 09:55:35;;;;;;;8.20;1.70;;;26.30;65.30;;;;;;5084005;28;20216;-80
2022/06/09 09:58:29;;;;;;;3.13;2.05;;;26.30;65.50;;;;;;5082884;28;20193;-80
2022/06/09 10:01:01;;;;;;;2.28;1.65;;;26.30;65.60;;;;;;5079535;28;20206;-80
2022/06/09 10:09:47;;;;;;;2.75;1.80;;;26.30;66.70;;;;;;5083789;28;20186;-78
2022/06/09 10:12:27;;;;;;;4.03;1.88;;;26.30;66.90;;;;;;5083490;28;20212;-78
2022/06/09 10:14:58;;;;;;;3.28;1.83;;;26.40;67.50;;;;;;5080548;28;20220;-80
2022/06/09 10:17:32;;;;;;;3.42;1.90;;;26.50;67.90;;;;;;5083825;28;20204;-80
2022/06/09 10:20:35;;;;;;;4.75;2.00;;;26.50;67.80;;;;;;5078319;28;20211;-80
2022/06/09 10:23:23;;;;;;;5.25;1.80;;;26.50;66.90;;;;;;5085932;28;20193;-79
2022/06/09 10:25:58;;;;;;;4.60;2.00;;;26.60;67.70;;;;;;5083767;28;20182;-81
2022/06/09 10:28:39;;;;;;;3.53;1.80;;;26.60;67.40;;;;;;5076267;28;20193;-79
2022/06/09 10:31:16;;;;;;;2.67;1.33;;;26.70;67.30;;;;;;5076612;28;20888;-79
2022/06/09 10:33:50;;;;;;;1.95;1.08;;;26.70;66.90;;;;;;5074335;28;20197;-80
2022/06/09 10:36:25;;;;;;;2.22;1.40;;;26.70;65.50;;;;;;5085063;28;20285;-79
2022/06/09 10:38:59;;;;;;;4.28;1.77;;;26.80;65.10;;;;;;5083938;28;20197;-79
2022/06/09 10:41:40;;;;;;;4.45;1.42;;;26.80;65.00;;;;;;5084557;28;20189;-80
2022/06/09 10:44:16;;;;;;;2.80;1.50;;;26.80;65.30;;;;;;5084294;28;20221;-79
2022/06/09 10:55:14;;;;;;;5.57;1.77;;;26.80;65.40;;;;;;5086033;28;20186;-80
2022/06/09 10:55:33;;;;;;;3.35;1.20;;;26.90;62.80;;;;;;5071908;28;20214;-78
2022/06/09 10:58:09;;;;;;;3.33;1.60;;;26.90;63.20;;;;;;5080688;28;20194;-79
2022/06/09 11:00:42;;;;;;;5.90;1.70;;;26.90;63.10;;;;;;5083990;28;20185;-78
2022/06/09 11:03:20;;;;;;;3.13;1.70;;;27.00;63.30;;;;;;5079520;28;20220;-79
2022/06/09 11:06:11;;;;;;;2.78;1.70;;;27.20;64.80;;;;;;5085056;28;20611;-79
2022/06/09 11:08:50;;;;;;;5.63;2.10;;;27.30;64.20;;;;;;5076978;28;21092;-81
2022/06/09 11:11:28;;;;;;;7.22;2.10;;;27.30;64.50;;;;;;5079779;28;20193;-80
2022/06/09 11:14:13;;;;;;;3.55;2.20;;;27.40;64.90;;;;;;5081100;28;20546;-79
2022/06/09 11:16:52;;;;;;;4.18;2.30;;;27.50;65.10;;;;;;5085877;28;20306;-80
2022/06/09 11:19:46;;;;;;;6.50;1.92;;;27.60;65.40;;;;;;5080232;28;20185;-80
2022/06/09 11:22:25;;;;;;;3.78;1.90;;;27.70;65.30;;;;;;5086051;28;20185;-79
2022/06/09 11:25:02;;;;;;;3.33;1.65;;;27.60;65.30;;;;;;5073986;28;20178;-78
2022/06/09 11:27:40;;;;;;;3.88;2.00;;;27.70;65.60;;;;;;5081024;28;20901;-77
2022/06/09 11:30:21;;;;;;;4.13;1.83;;;27.80;65.00;;;;;;5070771;28;20848;-79
2022/06/09 11:33:01;;;;;;;3.70;1.83;;;27.70;63.90;;;;;;5073360;28;20197;-79
2022/06/09 11:35:43;;;;;;;3.47;2.00;;;27.80;63.80;;;;;;5082825;28;20739;-78
2022/06/09 11:38:32;;;;;;;3.53;1.77;;;27.80;63.90;;;;;;5080237;28;20682;-78
2022/06/09 11:41:11;;;;;;;2.67;1.83;;;27.90;64.10;;;;;;5081984;28;20189;-79
2022/06/09 11:44:13;;;;;;;3.78;1.52;;;27.90;63.80;;;;;;5080501;28;20694;-80
2022/06/09 11:46:44;;;;;;;5.18;2.42;;;27.90;63.70;;;;;;5079637;28;20185;-79
2022/06/09 11:49:20;;;;;;;3.28;1.73;;;28.00;62.80;;;;;;5075859;28;20968;-78
2022/06/09 11:51:49;;;;;;;3.08;1.48;;;28.00;63.00;;;;;;5077338;28;20197;-79
2022/06/09 11:54:42;;;;;;;3.28;1.50;;;28.10;62.90;;;;;;5082655;28;20197;-78
2022/06/09 11:57:26;;;;;;;2.72;1.60;;;28.20;62.70;;;;;;5079668;28;20186;-79
2022/06/09 11:59:58;;;;;;;4.43;1.33;;;28.40;62.50;;;;;;5083373;28;20194;-79
2022/06/09 12:02:42;;;;;;;4.18;1.30;;;28.50;61.70;;;;;;5084985;28;20233;-78
2022/06/09 12:05:21;;;;;;;2.28;1.30;;;28.60;61.70;;;;;;5077135;28;20181;-80
2022/06/09 12:08:13;;;;;;;2.15;1.40;;;28.70;60.90;;;;;;5082875;28;20227;-79
2022/06/09 12:11:01;;;;;;;3.45;1.60;;;28.70;60.50;;;;;;5076611;28;20193;-79
2022/06/09 12:13:38;;;;;;;4.05;1.45;;;28.90;59.80;;;;;;5074204;28;20185;-80
2022/06/09 12:16:25;;;;;;;2.88;1.35;;;28.90;59.70;;;;;;5077723;28;20209;-80
2022/06/09 12:19:06;;;;;;;5.18;1.50;;;28.90;59.30;;;;;;5073103;28;20198;-80
2022/06/09 12:21:38;;;;;;;2.80;1.52;;;29.10;59.50;;;;;;5082569;28;20190;-79
2022/06/09 12:24:31;;;;;;;3.83;1.65;;;29.20;59.70;;;;;;5076876;28;20190;-80
2022/06/09 12:27:17;;;;;;;5.68;1.17;;;29.30;59.00;;;;;;5084499;28;20204;-80
2022/06/09 12:30:05;;;;;;;2.88;1.67;;;29.40;59.40;;;;;;5079542;28;20220;-78
2022/06/09 12:32:46;;;;;;;4.75;1.25;;;29.50;59.00;;;;;;5082481;28;20221;-80
2022/06/09 12:35:31;;;;;;;3.60;1.63;;;29.60;58.10;;;;;;5081608;28;20204;-79
2022/06/09 12:38:07;;;;;;;3.80;1.90;;;29.60;58.10;;;;;;5085054;28;20237;-79
2022/06/09 12:40:44;;;;;;;7.18;1.40;;;29.80;58.30;;;;;;5081994;28;20205;-80
2022/06/09 12:43:27;;;;;;;3.33;1.00;;;29.80;57.80;;;;;;5078314;28;20197;-78
2022/06/09 12:46:16;;;;;;;1.85;1.08;;;30.00;56.90;;;;;;5084660;28;20239;-79
2022/06/09 12:48:45;;;;;;;4.15;1.10;;;30.20;56.50;;;;;;5083452;28;20666;-79
2022/06/09 12:51:20;;;;;;;2.50;1.20;;;30.30;56.60;;;;;;5080922;28;20199;-79
2022/06/09 12:54:03;;;;;;;6.38;1.08;;;30.50;56.50;;;;;;5083410;28;20193;-79
2022/06/09 12:56:38;;;;;;;1.25;0.93;;;30.70;55.60;;;;;;5089583;28;20217;-80
2022/06/09 12:59:18;;;;;;;2.15;0.98;;;30.80;55.20;;;;;;5084960;28;20201;-79
2022/06/09 13:02:02;;;;;;;3.03;0.85;;;30.90;54.60;;;;;;5080548;28;20201;-79
2022/06/09 13:04:33;;;;;;;2.85;1.10;;;31.00;54.50;;;;;;5082959;28;20194;-81
2022/06/09 13:07:01;;;;;;;2.67;1.17;;;31.20;54.00;;;;;;5082353;28;20277;-80
2022/06/09 13:09:59;;;;;;;1.55;0.90;;;31.20;53.50;;;;;;5084363;28;20201;-77
2022/06/09 13:15:37;;;;;;;2.28;1.30;;;31.70;53.40;;;;;;5079172;28;20194;-78
2022/06/09 13:18:16;;;;;;;5.05;1.10;;;32.00;53.20;;;;;;5081597;28;20201;-77
2022/06/09 13:20:51;;;;;;;5.20;1.25;;;32.20;53.10;;;;;;5081743;28;20212;-78
2022/06/09 13:23:21;;;;;;;5.85;1.45;;;32.50;53.40;;;;;;5081102;28;20196;-77
2022/06/09 13:25:51;;;;;;;1.40;1.10;;;32.70;53.30;;;;;;5080158;28;20201;-77
2022/06/09 13:28:30;;;;;;;5.80;1.35;;;33.00;52.80;;;;;;5080781;28;20228;-77
2022/06/09 13:31:01;;;;;;;6.28;1.20;;;33.10;51.80;;;;;;5085138;28;20185;-77
2022/06/09 13:33:33;;;;;;;4.60;1.33;;;33.10;51.40;;;;;;5088454;28;20192;-78
2022/06/09 13:36:28;;;;;;;3.67;1.25;;;33.10;50.70;;;;;;5084528;28;20217;-79
2022/06/09 13:38:58;;;;;;;2.03;1.17;;;32.90;50.40;;;;;;5083537;28;20527;-79
2022/06/09 13:41:38;;;;;;;2.35;1.30;;;32.80;50.20;;;;;;5078862;28;20192;-79